createdAt,value
2023-05-09T00:02:11.433Z,13.50
2023-05-09T00:04:38.524Z,13.40
2023-05-09T00:07:05.603Z,13.40
2023-05-09T00:09:32.497Z,13.40
2023-05-09T00:11:59.667Z,13.40
2023-05-09T00:14:26.528Z,13.40
2023-05-09T00:16:55.077Z,13.40
2023-05-09T00:19:22.157Z,13.30
2023-05-09T00:21:49.094Z,13.30
2023-05-09T00:24:16.064Z,13.30
2023-05-09T00:26:43.359Z,13.30
2023-05-09T00:29:10.633Z,13.30
2023-05-09T00:31:37.556Z,13.20
2023-05-09T00:34:05.934Z,13.20
2023-05-09T00:36:32.764Z,13.20
2023-05-09T00:38:59.699Z,13.10
2023-05-09T00:41:26.728Z,13.10
2023-05-09T00:43:54.096Z,13.10
2023-05-09T00:46:22.017Z,13.10
2023-05-09T00:48:49.409Z,13.10
2023-05-09T00:51:18.242Z,13.10
2023-05-09T00:53:45.708Z,13.00
2023-05-09T00:56:12.597Z,13.00
2023-05-09T00:58:39.513Z,13.00
2023-05-09T01:01:06.398Z,12.90
2023-05-09T01:03:33.749Z,12.90
2023-05-09T01:06:08.141Z,12.90
2023-05-09T01:08:46.230Z,12.80
2023-05-09T01:11:25.473Z,12.80
2023-05-09T01:14:05.464Z,12.80
2023-05-09T01:16:41.353Z,12.70
2023-05-09T01:19:40.378Z,12.70
2023-05-09T01:22:14.949Z,12.70
2023-05-09T01:25:34.583Z,12.60
2023-05-09T01:28:16.702Z,12.60
2023-05-09T01:30:47.317Z,12.50
2023-05-09T01:33:19.071Z,12.50
2023-05-09T01:35:53.872Z,12.50
2023-05-09T01:38:25.448Z,12.40
2023-05-09T01:40:56.939Z,12.40
2023-05-09T01:43:28.723Z,12.40
2023-05-09T01:45:58.604Z,12.30
2023-05-09T01:48:29.333Z,12.30
2023-05-09T01:50:59.449Z,12.20
2023-05-09T01:53:29.286Z,12.20
2023-05-09T01:55:58.575Z,12.20
2023-05-09T01:58:26.975Z,12.20
2023-05-09T02:00:54.234Z,12.10
2023-05-09T02:03:23.787Z,12.10
2023-05-09T02:05:52.234Z,12.00
2023-05-09T02:08:20.930Z,12.00
2023-05-09T02:10:49.102Z,12.00
2023-05-09T02:13:16.417Z,11.90
2023-05-09T02:15:44.247Z,11.90
2023-05-09T02:18:11.482Z,11.90
2023-05-09T02:20:40.122Z,11.90
2023-05-09T02:23:07.518Z,11.80
2023-05-09T02:25:38.944Z,11.80
2023-05-09T02:28:08.464Z,11.80
2023-05-09T02:30:44.158Z,11.70
2023-05-09T02:33:13.734Z,11.70
2023-05-09T02:35:45.904Z,11.70
2023-05-09T02:38:14.666Z,11.60
2023-05-09T02:40:43.736Z,11.60
2023-05-09T02:43:13.117Z,11.60
2023-05-09T02:45:41.630Z,11.50
2023-05-09T02:48:14.589Z,11.50
2023-05-09T02:50:44.698Z,11.50
2023-05-09T02:53:12.713Z,11.50
2023-05-09T02:55:41.580Z,11.50
2023-05-09T02:58:13.960Z,11.40
2023-05-09T03:00:43.390Z,11.40
2023-05-09T03:03:12.269Z,11.40
2023-05-09T03:05:45.678Z,11.30
2023-05-09T03:08:14.074Z,11.30
2023-05-09T03:10:41.031Z,11.30
2023-05-09T03:13:09.042Z,11.30
2023-05-09T03:15:36.052Z,11.20
2023-05-09T03:18:06.106Z,11.20
2023-05-09T03:20:33.758Z,11.20
2023-05-09T03:23:01.304Z,11.20
2023-05-09T03:25:30.114Z,11.10
2023-05-09T03:27:57.862Z,11.10
2023-05-09T03:30:25.083Z,11.10
2023-05-09T03:32:52.541Z,11.10
2023-05-09T03:35:19.831Z,11.00
2023-05-09T03:37:46.930Z,11.00
2023-05-09T03:40:14.362Z,11.00
2023-05-09T03:42:50.070Z,11.00
2023-05-09T03:45:17.194Z,10.90
2023-05-09T03:47:46.518Z,10.90
2023-05-09T03:50:38.659Z,10.90
2023-05-09T03:53:05.858Z,10.90
2023-05-09T03:55:34.789Z,10.90
2023-05-09T03:58:03.602Z,10.90
2023-05-09T04:00:32.743Z,10.90
2023-05-09T04:03:07.755Z,10.90
2023-05-09T04:05:41.194Z,10.90
2023-05-09T04:08:14.491Z,10.90
2023-05-09T04:10:41.770Z,10.90
2023-05-09T04:13:10.660Z,10.90
2023-05-09T04:15:37.998Z,10.90
2023-05-09T04:18:06.707Z,10.90
2023-05-09T04:20:36.920Z,10.90
2023-05-09T04:23:04.168Z,10.90
2023-05-09T04:25:31.316Z,10.90
2023-05-09T04:27:58.708Z,10.90
2023-05-09T04:30:27.541Z,10.90
2023-05-09T04:32:55.429Z,10.90
2023-05-09T04:35:23.361Z,11.00
2023-05-09T04:37:52.890Z,11.00
2023-05-09T04:40:20.192Z,11.00
2023-05-09T04:42:54.316Z,11.00
2023-05-09T04:45:24.639Z,11.00
2023-05-09T04:47:58.829Z,11.10
2023-05-09T04:50:26.109Z,11.10
2023-05-09T04:52:56.220Z,11.10
2023-05-09T04:55:26.396Z,11.20
2023-05-09T04:57:55.757Z,11.20
2023-05-09T05:00:23.517Z,11.20
2023-05-09T05:02:52.964Z,11.20
2023-05-09T05:05:25.014Z,11.30
2023-05-09T05:07:54.256Z,11.30
2023-05-09T05:10:25.223Z,11.40
2023-05-09T05:15:57.142Z,11.40
2023-05-09T05:18:25.971Z,11.50
2023-05-09T05:20:53.910Z,11.50
2023-05-09T05:23:21.473Z,11.60
2023-05-09T05:25:52.386Z,11.60
2023-05-09T05:28:20.123Z,11.70
2023-05-09T05:30:47.420Z,11.70
2023-05-09T05:33:14.453Z,11.80
2023-05-09T05:35:43.171Z,11.80
2023-05-09T05:38:10.847Z,11.90
2023-05-09T05:40:38.268Z,11.90
2023-05-09T05:43:06.580Z,12.00
2023-05-09T05:45:35.737Z,12.00
2023-05-09T05:48:06.096Z,12.10
2023-05-09T05:50:33.608Z,12.20
2023-05-09T05:53:02.051Z,12.20
2023-05-09T05:55:29.594Z,12.30
2023-05-09T05:57:57.326Z,12.30
2023-05-09T06:00:25.343Z,12.40
2023-05-09T06:02:59.876Z,12.40
2023-05-09T06:05:53.453Z,12.50
2023-05-09T06:08:22.044Z,12.60
2023-05-09T06:10:49.063Z,12.70
2023-05-09T06:13:16.418Z,12.70
2023-05-09T06:15:48.259Z,12.80
2023-05-09T06:18:15.976Z,12.90
2023-05-09T06:20:43.027Z,12.90
2023-05-09T06:23:10.588Z,13.00
2023-05-09T06:25:39.250Z,13.10
2023-05-09T06:28:07.226Z,13.20
2023-05-09T06:30:34.734Z,13.30
2023-05-09T06:33:01.654Z,13.40
2023-05-09T06:35:28.752Z,13.60
2023-05-09T06:37:56.039Z,14.30
2023-05-09T06:40:23.257Z,15.00
2023-05-09T06:42:52.827Z,15.50
2023-05-09T06:45:20.881Z,15.90
2023-05-09T06:50:39.289Z,16.70
2023-05-09T06:53:06.436Z,17.00
2023-05-09T06:55:33.704Z,17.30
2023-05-09T06:58:02.811Z,17.60
2023-05-09T07:00:30.253Z,17.90
2023-05-09T07:02:57.335Z,18.10
2023-05-09T07:05:24.749Z,18.40
2023-05-09T07:07:52.320Z,18.70
2023-05-09T07:10:19.711Z,19.00
2023-05-09T07:12:46.894Z,19.20
2023-05-09T07:15:22.740Z,19.30
2023-05-09T07:17:56.435Z,19.60
2023-05-09T07:20:23.885Z,19.90
2023-05-09T07:22:50.898Z,20.20
2023-05-09T07:25:18.111Z,20.50
2023-05-09T07:27:45.193Z,20.70
2023-05-09T07:30:13.557Z,21.00
2023-05-09T07:32:42.331Z,21.30
2023-05-09T07:35:09.473Z,21.40
2023-05-09T07:37:36.721Z,21.60
2023-05-09T07:40:04.531Z,21.70
2023-05-09T07:42:31.839Z,21.80
2023-05-09T07:44:59.160Z,21.90
2023-05-09T07:47:26.379Z,22.20
2023-05-09T07:49:54.814Z,22.40
2023-05-09T07:52:21.908Z,22.70
2023-05-09T07:54:49.372Z,22.90
2023-05-09T07:57:16.470Z,23.10
2023-05-09T07:59:43.703Z,23.20
2023-05-09T08:02:10.641Z,23.30
2023-05-09T08:04:38.682Z,23.40
2023-05-09T08:07:07.109Z,23.50
2023-05-09T08:09:34.629Z,23.70
2023-05-09T08:12:01.717Z,24.00
2023-05-09T08:14:28.734Z,24.20
2023-05-09T08:16:55.646Z,24.30
2023-05-09T08:19:22.671Z,24.40
2023-05-09T08:21:49.803Z,24.60
2023-05-09T08:24:18.880Z,24.60
2023-05-09T08:26:46.032Z,24.80
2023-05-09T08:29:17.549Z,25.00
2023-05-09T08:31:45.686Z,25.10
2023-05-09T08:34:12.731Z,25.20
2023-05-09T08:36:39.791Z,25.40
2023-05-09T08:39:07.639Z,25.60
2023-05-09T08:41:37.629Z,25.80
2023-05-09T08:44:05.222Z,25.90
2023-05-09T08:46:39.895Z,26.10
2023-05-09T08:49:09.714Z,26.30
2023-05-09T08:51:38.436Z,26.60
2023-05-09T08:54:06.060Z,26.80
2023-05-09T08:56:36.827Z,27.00
2023-05-09T08:59:04.770Z,27.20
2023-05-09T09:01:34.771Z,27.60
2023-05-09T09:04:07.539Z,27.90
2023-05-09T09:06:35.791Z,28.10
2023-05-09T09:09:06.061Z,28.10
2023-05-09T09:11:36.350Z,28.20
2023-05-09T09:14:12.601Z,28.40
2023-05-09T09:16:43.931Z,28.70
2023-05-09T09:19:13.465Z,29.00
2023-05-09T09:21:43.375Z,29.20
2023-05-09T09:24:14.008Z,29.30
2023-05-09T09:26:51.109Z,29.30
2023-05-09T09:29:20.241Z,29.50
2023-05-09T09:31:52.283Z,29.70
2023-05-09T09:34:23.477Z,30.00
2023-05-09T09:36:51.202Z,30.20
2023-05-09T09:39:18.675Z,30.30
2023-05-09T09:41:45.815Z,30.40
2023-05-09T09:47:10.658Z,30.60
2023-05-09T09:49:38.257Z,30.70
2023-05-09T09:52:05.856Z,30.70
2023-05-09T09:54:33.129Z,30.70
2023-05-09T09:57:00.252Z,30.70
2023-05-09T09:59:29.005Z,30.90
2023-05-09T10:02:03.438Z,31.30
2023-05-09T10:04:35.654Z,31.60
2023-05-09T10:07:05.608Z,31.70
2023-05-09T10:09:36.795Z,31.80
2023-05-09T10:12:08.055Z,31.80
2023-05-09T10:14:42.599Z,31.90
2023-05-09T10:17:22.017Z,31.90
2023-05-09T10:19:55.795Z,32.00
2023-05-09T10:22:26.606Z,32.10
2023-05-09T10:25:03.305Z,32.30
2023-05-09T10:27:34.865Z,32.30
2023-05-09T10:30:11.287Z,32.30
2023-05-09T10:32:48.505Z,32.20
2023-05-09T10:35:21.058Z,32.10
2023-05-09T10:37:49.884Z,32.40
2023-05-09T10:40:22.720Z,32.70
2023-05-09T10:42:50.458Z,33.00
2023-05-09T10:45:21.438Z,33.20
2023-05-09T10:47:50.820Z,33.30
2023-05-09T10:50:20.253Z,33.50
2023-05-09T10:53:09.876Z,33.50
2023-05-09T10:55:50.152Z,33.60
2023-05-09T10:58:26.345Z,33.70
2023-05-09T11:00:59.467Z,33.70
2023-05-09T11:03:49.967Z,33.70
2023-05-09T11:06:41.844Z,33.70
2023-05-09T11:09:29.898Z,33.90
2023-05-09T11:12:08.199Z,33.80
2023-05-09T11:14:43.590Z,33.70
2023-05-09T11:17:15.439Z,33.70
2023-05-09T11:19:59.764Z,33.40
2023-05-09T11:22:29.892Z,33.30
2023-05-09T11:25:04.503Z,33.30
2023-05-09T11:30:39.772Z,34.00
2023-05-09T11:33:23.608Z,33.90
2023-05-09T11:36:15.931Z,34.10
2023-05-09T11:38:44.954Z,34.20
2023-05-09T11:43:55.439Z,34.00
2023-05-09T11:46:22.808Z,34.20
2023-05-09T11:48:51.274Z,34.10
2023-05-09T11:51:19.706Z,33.80
2023-05-09T11:53:50.402Z,33.70
2023-05-09T11:56:20.462Z,33.90
2023-05-09T11:58:51.830Z,33.80
2023-05-09T12:01:19.975Z,33.50
2023-05-09T12:03:47.778Z,33.30
2023-05-09T12:06:18.668Z,33.00
2023-05-09T12:08:46.704Z,32.60
2023-05-09T12:11:14.964Z,32.40
2023-05-09T12:13:49.388Z,32.20
2023-05-09T12:16:18.454Z,32.20
2023-05-09T12:18:47.501Z,32.20
2023-05-09T12:21:15.164Z,32.30
2023-05-09T12:23:43.799Z,32.30
2023-05-09T12:26:13.768Z,32.70
2023-05-09T12:28:41.788Z,33.00
2023-05-09T12:31:09.816Z,33.00
2023-05-09T12:33:38.898Z,33.00
2023-05-09T12:36:10.718Z,33.10
2023-05-09T12:38:38.781Z,33.20
2023-05-09T12:41:21.961Z,33.10
2023-05-09T12:44:01.363Z,33.00
2023-05-09T12:46:28.694Z,33.20
2023-05-09T12:48:56.286Z,33.30
2023-05-09T12:51:23.801Z,33.50
2023-05-09T12:53:51.046Z,33.60
2023-05-09T12:56:21.156Z,33.60
2023-05-09T12:58:51.714Z,33.70
2023-05-09T13:01:19.234Z,33.50
2023-05-09T13:03:52.126Z,33.30
2023-05-09T13:06:19.240Z,33.30
2023-05-09T13:08:58.372Z,33.20
2023-05-09T13:11:27.347Z,33.40
2023-05-09T13:13:54.697Z,33.50
2023-05-09T13:16:21.693Z,33.60
2023-05-09T13:18:49.125Z,33.70
2023-05-09T13:21:16.228Z,33.70
2023-05-09T13:23:43.587Z,33.70
2023-05-09T13:26:10.933Z,33.40
2023-05-09T13:28:39.536Z,33.20
2023-05-09T13:31:07.776Z,33.30
2023-05-09T13:33:37.053Z,33.40
2023-05-09T13:36:04.772Z,33.40
2023-05-09T13:38:32.535Z,33.40
2023-05-09T13:41:00.311Z,33.30
2023-05-09T13:43:27.980Z,33.30
2023-05-09T13:45:57.116Z,33.30
2023-05-09T13:48:24.613Z,33.20
2023-05-09T13:50:52.215Z,33.00
2023-05-09T13:53:19.342Z,32.70
2023-05-09T13:55:47.884Z,32.50
2023-05-09T13:58:15.665Z,32.30
2023-05-09T14:00:42.894Z,32.20
2023-05-09T14:03:12.776Z,31.90
2023-05-09T14:05:41.501Z,31.80
2023-05-09T14:08:08.520Z,31.70
2023-05-09T14:10:35.892Z,31.50
2023-05-09T14:13:03.609Z,31.30
2023-05-09T14:15:30.635Z,31.00
2023-05-09T14:17:57.867Z,30.80
2023-05-09T14:20:27.426Z,30.60
2023-05-09T14:22:54.514Z,30.70
2023-05-09T14:25:21.798Z,30.90
2023-05-09T14:27:51.178Z,31.00
2023-05-09T14:30:21.587Z,31.10
2023-05-09T14:32:48.901Z,31.10
2023-05-09T14:35:15.995Z,31.00
2023-05-09T14:37:47.100Z,30.70
2023-05-09T14:40:16.081Z,30.50
2023-05-09T14:42:43.452Z,30.10
2023-05-09T14:45:11.242Z,29.70
2023-05-09T14:47:38.876Z,29.50
2023-05-09T14:50:08.619Z,29.40
2023-05-09T14:52:35.654Z,29.70
2023-05-09T14:55:05.420Z,30.20
2023-05-09T14:57:33.223Z,30.60
2023-05-09T15:02:52.451Z,30.30
2023-05-09T15:05:19.931Z,29.90
2023-05-09T15:07:46.982Z,29.90
2023-05-09T15:10:16.103Z,30.00
2023-05-09T15:12:45.112Z,30.30
2023-05-09T15:15:14.927Z,30.30
2023-05-09T15:17:43.764Z,30.40
2023-05-09T15:20:13.552Z,30.40
2023-05-09T15:22:41.687Z,30.30
2023-05-09T15:25:10.206Z,30.20
2023-05-09T15:30:30.791Z,30.10
2023-05-09T15:32:57.963Z,29.80
2023-05-09T15:35:25.849Z,29.60
2023-05-09T15:37:52.834Z,29.30
2023-05-09T15:40:20.502Z,28.80
2023-05-09T15:42:49.608Z,28.70
2023-05-09T15:45:20.524Z,28.70
2023-05-09T15:47:47.683Z,28.80
2023-05-09T15:50:15.101Z,28.90
2023-05-09T15:52:43.195Z,29.00
2023-05-09T15:55:11.547Z,29.10
2023-05-09T15:57:38.762Z,29.10
2023-05-09T16:00:09.428Z,29.00
2023-05-09T16:02:45.607Z,28.90
2023-05-09T16:05:12.816Z,28.80
2023-05-09T16:07:43.619Z,28.60
2023-05-09T16:10:11.060Z,28.60
2023-05-09T16:12:40.821Z,28.40
2023-05-09T16:15:10.791Z,28.10
2023-05-09T16:17:37.948Z,27.80
2023-05-09T16:20:07.292Z,27.60
2023-05-09T16:22:35.881Z,27.50
2023-05-09T16:25:03.291Z,27.50
2023-05-09T16:27:30.616Z,27.40
2023-05-09T16:29:57.759Z,27.20
2023-05-09T16:32:26.800Z,27.10
2023-05-09T16:34:54.217Z,27.00
2023-05-09T16:37:21.683Z,26.90
2023-05-09T16:39:48.938Z,26.70
2023-05-09T16:42:16.602Z,26.50
2023-05-09T16:44:46.071Z,26.40
2023-05-09T16:47:13.409Z,26.30
2023-05-09T16:49:42.443Z,26.10
2023-05-09T16:52:12.883Z,25.90
2023-05-09T16:54:40.292Z,25.80
2023-05-09T16:57:07.531Z,25.60
2023-05-09T16:59:34.807Z,25.50
2023-05-09T17:02:02.400Z,25.30
2023-05-09T17:04:29.968Z,25.10
2023-05-09T17:06:58.361Z,24.80
2023-05-09T17:09:25.964Z,24.60
2023-05-09T17:11:53.340Z,24.40
2023-05-09T17:14:20.762Z,24.30
2023-05-09T17:16:48.057Z,24.20
2023-05-09T17:19:15.678Z,24.00
2023-05-09T17:21:42.923Z,23.80
2023-05-09T17:24:14.092Z,23.60
2023-05-09T17:26:41.271Z,23.50
2023-05-09T17:29:08.416Z,23.30
2023-05-09T17:31:35.675Z,23.10
2023-05-09T17:34:04.362Z,23.00
2023-05-09T17:36:31.651Z,22.80
2023-05-09T17:38:59.107Z,22.60
2023-05-09T17:41:27.943Z,22.50
2023-05-09T17:43:56.411Z,22.30
2023-05-09T17:46:23.858Z,22.20
2023-05-09T17:48:50.949Z,22.20
2023-05-09T17:51:18.788Z,22.10
2023-05-09T17:53:47.745Z,22.00
2023-05-09T17:56:14.924Z,21.90
2023-05-09T17:58:43.483Z,21.90
2023-05-09T18:01:10.657Z,21.80
2023-05-09T18:03:38.165Z,21.70
2023-05-09T18:06:29.525Z,21.50
2023-05-09T18:08:56.602Z,21.40
2023-05-09T18:11:24.037Z,21.30
2023-05-09T18:13:54.822Z,21.20
2023-05-09T18:16:22.218Z,21.10
2023-05-09T18:18:49.281Z,21.00
2023-05-09T18:21:20.157Z,20.90
2023-05-09T18:23:47.222Z,20.80
2023-05-09T18:26:15.092Z,20.70
2023-05-09T18:28:42.124Z,20.60
2023-05-09T18:31:10.962Z,20.50
2023-05-09T18:33:38.084Z,20.40
2023-05-09T18:36:06.238Z,20.40
2023-05-09T18:38:33.257Z,20.20
2023-05-09T18:41:01.048Z,20.10
2023-05-09T18:43:28.095Z,20.00
2023-05-09T18:45:55.385Z,20.00
2023-05-09T18:48:23.816Z,19.80
2023-05-09T18:50:51.308Z,19.70
2023-05-09T18:53:18.561Z,19.60
2023-05-09T18:55:46.289Z,19.60
2023-05-09T18:58:14.591Z,19.50
2023-05-09T19:00:41.862Z,19.40
2023-05-09T19:03:09.284Z,19.30
2023-05-09T19:05:37.697Z,19.20
2023-05-09T19:08:06.147Z,19.20
2023-05-09T19:10:35.650Z,19.10
2023-05-09T19:13:03.860Z,19.00
2023-05-09T19:15:36.303Z,18.90
2023-05-09T19:18:04.207Z,18.90
2023-05-09T19:20:31.825Z,18.80
2023-05-09T19:23:00.903Z,18.70
2023-05-09T19:25:46.729Z,18.60
2023-05-09T19:31:12.760Z,18.50
2023-05-09T19:33:39.924Z,18.50
2023-05-09T19:36:07.376Z,18.40
2023-05-09T19:38:35.698Z,18.30
2023-05-09T19:41:02.601Z,18.30
2023-05-09T19:43:29.615Z,18.20
2023-05-09T19:45:56.617Z,18.20
2023-05-09T19:48:23.592Z,18.10
2023-05-09T19:50:57.342Z,18.10
2023-05-09T19:53:24.424Z,18.00
2023-05-09T19:55:52.988Z,18.00
2023-05-09T19:58:19.884Z,17.90
2023-05-09T20:00:46.905Z,17.90
2023-05-09T20:03:14.328Z,17.80
2023-05-09T20:05:41.296Z,17.80
2023-05-09T20:08:08.218Z,17.70
2023-05-09T20:10:35.327Z,17.70
2023-05-09T20:13:04.252Z,17.60
2023-05-09T20:15:31.373Z,17.60
2023-05-09T20:17:58.491Z,17.50
2023-05-09T20:20:25.515Z,17.50
2023-05-09T20:22:52.644Z,17.40
2023-05-09T20:25:19.569Z,17.40
2023-05-09T20:30:39.565Z,17.30
2023-05-09T20:33:06.613Z,17.20
2023-05-09T20:35:33.964Z,17.20
2023-05-09T20:38:00.927Z,17.10
2023-05-09T20:40:27.834Z,17.10
2023-05-09T20:42:55.406Z,17.10
2023-05-09T20:45:22.477Z,17.00
2023-05-09T20:47:50.784Z,17.00
2023-05-09T20:50:18.292Z,16.90
2023-05-09T20:52:45.512Z,16.90
2023-05-09T20:55:12.458Z,16.80
2023-05-09T20:57:39.624Z,16.80
2023-05-09T21:00:08.468Z,16.70
2023-05-09T21:02:36.331Z,16.70
2023-05-09T21:05:06.007Z,16.70
2023-05-09T21:07:32.846Z,16.60
2023-05-09T21:09:59.809Z,16.60
2023-05-09T21:12:26.738Z,16.60
2023-05-09T21:14:54.045Z,16.50
2023-05-09T21:17:21.093Z,16.50
2023-05-09T21:19:48.329Z,16.40
2023-05-09T21:22:16.877Z,16.40
2023-05-09T21:24:43.812Z,16.40
2023-05-09T21:27:10.833Z,16.40
2023-05-09T21:29:38.010Z,16.30
2023-05-09T21:32:05.655Z,16.30
2023-05-09T21:34:32.528Z,16.30
2023-05-09T21:37:00.001Z,16.20
2023-05-09T21:39:28.328Z,16.20
2023-05-09T21:41:55.374Z,16.20
2023-05-09T21:44:22.217Z,16.20
2023-05-09T21:46:49.162Z,16.10
2023-05-09T21:49:16.224Z,16.10
2023-05-09T21:51:43.333Z,16.00
2023-05-09T21:54:10.355Z,16.00
2023-05-09T21:56:38.666Z,16.00
2023-05-09T21:59:05.843Z,16.00
2023-05-09T22:01:32.730Z,15.90
2023-05-09T22:04:00.133Z,15.90
2023-05-09T22:06:27.175Z,15.90
2023-05-09T22:08:54.400Z,15.90
2023-05-09T22:11:21.500Z,15.80
2023-05-09T22:13:50.006Z,15.80
2023-05-09T22:16:17.353Z,15.80
2023-05-09T22:18:44.317Z,15.80
2023-05-09T22:21:11.265Z,15.80
2023-05-09T22:23:38.247Z,15.70
2023-05-09T22:26:06.417Z,15.70
2023-05-09T22:28:33.443Z,15.70
2023-05-09T22:31:01.887Z,15.70
2023-05-09T22:33:29.190Z,15.60
2023-05-09T22:35:56.080Z,15.60
2023-05-09T22:38:23.100Z,15.60
2023-05-09T22:40:50.152Z,15.60
2023-05-09T22:43:17.411Z,15.60
2023-05-09T22:45:44.542Z,15.60
2023-05-09T22:48:12.979Z,15.50
2023-05-09T22:50:40.046Z,15.50
2023-05-09T22:53:07.417Z,15.50
2023-05-09T22:55:34.625Z,15.50
2023-05-09T22:58:01.495Z,15.50
2023-05-09T23:00:28.415Z,15.50
2023-05-09T23:02:55.693Z,15.40
2023-05-09T23:05:24.033Z,15.40
2023-05-09T23:07:50.971Z,15.40
2023-05-09T23:10:18.191Z,15.40
2023-05-09T23:12:45.498Z,15.30
2023-05-09T23:15:12.617Z,15.30
2023-05-09T23:17:39.747Z,15.30
2023-05-09T23:20:08.286Z,15.30
2023-05-09T23:22:36.955Z,15.20
2023-05-09T23:25:05.477Z,15.20
2023-05-09T23:27:32.854Z,15.20
2023-05-09T23:29:59.771Z,15.10
2023-05-09T23:32:27.574Z,15.10
2023-05-09T23:34:54.631Z,15.10
2023-05-09T23:37:21.535Z,15.10
2023-05-09T23:39:50.106Z,15.00
2023-05-09T23:42:17.168Z,15.00
2023-05-09T23:44:44.253Z,15.00
2023-05-09T23:47:11.475Z,15.00
2023-05-09T23:49:38.647Z,15.00
2023-05-09T23:52:05.723Z,14.90
2023-05-09T23:54:32.967Z,14.90
2023-05-09T23:57:01.326Z,14.90
2023-05-09T23:59:28.345Z,14.90
